Список аэропортов
Фактическая погода:

23 апреля, 12:30
Температура: +14°C (+11.9*)
Ветер: западный 8 м/с
Давление: *760 мм
разорв. обл.
1950 м
Время (МСК)Темп. СВетерВлажностьДавлениеОблачностьОсадки
09:00+8З, 6 м/с55%1014 гПаоблачно
10:00+10З, 6 м/с49%1014 гПаоблачно
11:00+12СЗ, 6 м/с44%1013 гПамалооблачно
12:00+13СЗ, 8 м/с40%1013 гПамалооблачно
13:00+14СЗ, 8 м/с37%1013 гПаоблачно
14:00+14СЗ, 9 м/с37%1013 гПаоблачно
15:00+13СЗ, 8 м/с44%1013 гПаоблачносл. дождь
16:00+13СЗ, 8 м/с48%1014 гПаоблачносл. дождь
17:00+12СЗ, 9 м/с49%1014 гПаоблачно
18:00+10СЗ, 10 м/с53%1015 гПаоблачно
19:00+9СЗ, 8 м/с50%1016 гПас прояснениямисл. дождь
20:00+8З, 7 м/с52%1017 гПас прояснениями
21:00+8СЗ, 7 м/с55%1019 гПамалооблачно
22:00+6СЗ, 6 м/с55%1020 гПаясно
23:00+6З, 5 м/с57%1021 гПаясно
24 апреля
00:00+5З, 5 м/с59%1021 гПаясно
01:00+5З, 5 м/с62%1022 гПамалооблачно
02:00+4З, 5 м/с65%1022 гПамалооблачно
03:00+4З, 5 м/с67%1022 гПаясно
04:00+3З, 5 м/с69%1022 гПаясно
05:00+3З, 5 м/с70%1022 гПаясно
06:00+2З, 4 м/с73%1023 гПаясно
07:00+2З, 3 м/с74%1023 гПаясно
08:00+3З, 4 м/с66%1023 гПаясно
09:00+5З, 5 м/с56%1023 гПаясно
10:00+7СЗ, 6 м/с46%1022 гПаясно
11:00+9СЗ, 5 м/с39%1022 гПаясно
12:00+10СЗ, 6 м/с35%1021 гПаясно
13:00+11СЗ, 6 м/с33%1021 гПаясно
14:00+12СЗ, 5 м/с31%1021 гПаясно
15:00+13СЗ, 4 м/с30%1020 гПаясно
16:00+14СЗ, 4 м/с29%1020 гПаясно
17:00+14СЗ, 5 м/с29%1020 гПаясно
18:00+14СЗ, 4 м/с30%1020 гПаясно
19:00+13СЗ, 4 м/с32%1020 гПаясно
20:00+12СЗ, 4 м/с35%1021 гПаясно
21:00+10СЗ, 2 м/с44%1022 гПаясно
22:00+8З, 1 м/с53%1023 гПаясно
23:00+8Ю, 2 м/с54%1023 гПаясно
25 апреля
00:00+7Ю, 2 м/с58%1024 гПаясно
01:00+6Ю, 2 м/с62%1024 гПаясно
02:00+5Ю, 1 м/с64%1024 гПаясно
03:00+4Ю, 1 м/с67%1024 гПаясно
04:00+3Штиль 72%1024 гПаясно
05:00+2В, 1 м/с76%1024 гПаясно
06:00+2В, 1 м/с78%1024 гПамалооблачно
07:00+2В, 1 м/с76%1024 гПамалооблачно
08:00+4В, 2 м/с68%1023 гПаясно
09:00+8В, 2 м/с51%1022 гПаясно